Station Historical Data
Daily Summary for January 7, 2018 Units:  English    Metric   Both
« Previous Day
Next Day »
Daily Weekly Monthly Yearly Custom
  High: Low: Average:
Temperature: 22.1 °F 1.6 °F 12.4 °F
Dew Point: 7.0 °F -5.4 °F 0.3 °F
Humidity: 76 % 42 % 59 %
Wind Speed: 5.0 mph 0.0 mph 0.4 mph
Wind Gust: 8.0 mph - -
Wind:- - SW
Pressure: 30.74 in 30.46 in -
Precipitation: 0.00 in    
Historical Graphs
 
 
Tabular Data for January 7, 2018
Time Temperature Dew Point Pressure Wind Wind Speed Wind Gust Humidity Rainfall Rate (Hourly)
00:01 10.4 °F -1.8 °F 30.62 in Calm   4.0 mph 57 % 0.00 in
00:06 10.1 °F -1.8 °F 30.62 in Calm   4.0 mph 58 % 0.00 in
00:08 10.1 °F -1.8 °F 30.62 in NNE 3.0 mph 5.0 mph 58 % 0.00 in
00:09 10.1 °F -1.4 °F 30.62 in Calm   5.0 mph 59 % 0.00 in
00:14 10.0 °F -1.5 °F 30.62 in Calm   6.0 mph 59 % 0.00 in
00:19 10.1 °F -1.4 °F 30.62 in Calm   6.0 mph 59 % 0.00 in
00:24 10.1 °F -1.4 °F 30.62 in Calm   6.0 mph 59 % 0.00 in
00:27 10.1 °F -1.4 °F 30.61 in Calm   6.0 mph 59 % 0.00 in
00:32 10.1 °F -1.4 °F 30.62 in Calm   6.0 mph 59 % 0.00 in
00:33 10.1 °F -1.4 °F 30.62 in NW 1.0 mph 6.0 mph 59 % 0.00 in
00:38 10.1 °F -1.4 °F 30.62 in Calm   6.0 mph 59 % 0.00 in
00:42 10.0 °F -1.5 °F 30.62 in NW 2.0 mph 5.0 mph 59 % 0.00 in
00:47 9.9 °F -1.9 °F 30.62 in Calm   4.0 mph 58 % 0.00 in
00:48 9.9 °F -1.6 °F 30.62 in Calm   4.0 mph 59 % 0.00 in
00:53 9.7 °F -1.7 °F 30.63 in Calm   6.0 mph 59 % 0.00 in
00:58 9.7 °F -1.7 °F 30.63 in WSW 1.0 mph 6.0 mph 59 % 0.00 in
01:03 9.6 °F -1.8 °F 30.63 in Calm   6.0 mph 59 % 0.00 in
01:04 9.6 °F -1.8 °F 30.63 in Calm   6.0 mph 59 % 0.00 in
01:09 9.6 °F -1.8 °F 30.62 in SW 1.0 mph 7.0 mph 59 % 0.00 in
01:14 9.7 °F -1.7 °F 30.63 in West 3.0 mph 7.0 mph 59 % 0.00 in
01:16 9.7 °F -1.7 °F 30.62 in Calm   7.0 mph 59 % 0.00 in
01:22 9.7 °F -1.8 °F 30.63 in Calm   7.0 mph 59 % 0.00 in
01:26 9.6 °F -1.9 °F 30.63 in Calm   7.0 mph 59 % 0.00 in
01:31 9.6 °F -1.9 °F 30.64 in Calm   7.0 mph 59 % 0.00 in
01:36 9.5 °F -2.0 °F 30.63 in Calm   7.0 mph 59 % 0.00 in
01:37 9.5 °F -2.0 °F 30.63 in NW 4.0 mph 7.0 mph 59 % 0.00 in
01:42 9.4 °F -2.1 °F 30.63 in Calm   7.0 mph 59 % 0.00 in
01:46 9.4 °F -2.1 °F 30.63 in West 2.0 mph 7.0 mph 59 % 0.00 in
01:51 9.4 °F -2.1 °F 30.64 in Calm   6.0 mph 59 % 0.00 in
01:53 9.3 °F -2.2 °F 30.64 in West 1.0 mph 6.0 mph 59 % 0.00 in
01:58 9.2 °F -2.2 °F 30.64 in West 1.0 mph 6.0 mph 59 % 0.00 in
02:03 9.3 °F -2.1 °F 30.65 in Calm   5.0 mph 59 % 0.00 in
02:04 9.3 °F -2.1 °F 30.65 in SW 3.0 mph 5.0 mph 59 % 0.00 in
02:06 9.3 °F -2.1 °F 30.65 in Calm   5.0 mph 59 % 0.00 in
02:11 9.2 °F -2.2 °F 30.65 in Calm   5.0 mph 59 % 0.00 in
02:13 9.2 °F -2.2 °F 30.65 in Calm   5.0 mph 59 % 0.00 in
02:18 9.1 °F -2.3 °F 30.65 in Calm   5.0 mph 59 % 0.00 in
02:21 9.1 °F -2.3 °F 30.65 in West 2.0 mph 5.0 mph 59 % 0.00 in
02:23 9.1 °F -2.3 °F 30.65 in Calm   5.0 mph 59 % 0.00 in
02:28 8.9 °F -2.5 °F 30.65 in WSW 1.0 mph 6.0 mph 59 % 0.00 in
02:33 8.8 °F -2.6 °F 30.65 in WSW 3.0 mph 6.0 mph 59 % 0.00 in
02:38 8.7 °F -2.3 °F 30.65 in Calm   6.0 mph 60 % 0.00 in
02:43 8.6 °F -2.8 °F 30.66 in Calm   6.0 mph 59 % 0.00 in
02:48 8.4 °F -2.6 °F 30.66 in Calm   4.0 mph 60 % 0.00 in
02:53 8.2 °F -2.8 °F 30.66 in Calm   4.0 mph 60 % 0.00 in
02:58 7.9 °F -3.1 °F 30.66 in Calm   4.0 mph 60 % 0.00 in
03:03 7.6 °F -3.4 °F 30.67 in Calm   1.0 mph 60 % 0.00 in
03:04 7.5 °F -3.5 °F 30.67 in WSW 2.0 mph 4.0 mph 60 % 0.00 in
03:09 7.3 °F -3.3 °F 30.67 in Calm   4.0 mph 61 % 0.00 in
03:15 7.1 °F -3.5 °F 30.66 in Calm   4.0 mph 61 % 0.00 in
03:16 7.0 °F -3.6 °F 30.66 in Calm   4.0 mph 61 % 0.00 in
03:18 6.9 °F -3.3 °F 30.66 in Calm   4.0 mph 62 % 0.00 in
03:22 6.8 °F -3.4 °F 30.66 in Calm   4.0 mph 62 % 0.00 in
03:27 6.6 °F -3.3 °F 30.67 in Calm   2.0 mph 63 % 0.00 in
03:32 6.5 °F -3.4 °F 30.67 in Calm   3.0 mph 63 % 0.00 in
03:37 6.4 °F -3.5 °F 30.67 in Calm   3.0 mph 63 % 0.00 in
03:42 6.4 °F -3.5 °F 30.67 in Calm   3.0 mph 63 % 0.00 in
03:47 6.4 °F -3.5 °F 30.67 in Calm   3.0 mph 63 % 0.00 in
03:49 6.3 °F -3.6 °F 30.67 in Calm   3.0 mph 63 % 0.00 in
03:54 6.2 °F -3.3 °F 30.67 in Calm   3.0 mph 64 % 0.00 in
03:59 6.1 °F -3.4 °F 30.67 in Calm   3.0 mph 64 % 0.00 in
04:04 5.8 °F -3.7 °F 30.67 in Calm     64 % 0.00 in
04:09 5.6 °F -3.9 °F 30.67 in Calm     64 % 0.00 in
04:11 5.5 °F -4.0 °F 30.67 in Calm     64 % 0.00 in
04:16 5.4 °F -3.8 °F 30.68 in Calm     65 % 0.00 in
04:18 5.4 °F -3.8 °F 30.68 in Calm     65 % 0.00 in
04:23 5.2 °F -4.0 °F 30.68 in Calm     65 % 0.00 in
04:24 5.2 °F -4.0 °F 30.68 in Calm     65 % 0.00 in
04:29 4.9 °F -4.2 °F 30.68 in Calm     65 % 0.00 in
04:32 4.7 °F -4.4 °F 30.68 in Calm     65 % 0.00 in
04:37 4.3 °F -4.5 °F 30.67 in Calm     66 % 0.00 in
04:40 4.1 °F -4.7 °F 30.67 in Calm     66 % 0.00 in
04:45 3.8 °F -5.0 °F 30.67 in Calm     66 % 0.00 in
04:51 3.6 °F -4.9 °F 30.67 in Calm   1.0 mph 67 % 0.00 in
04:56 3.3 °F -5.1 °F 30.67 in Calm   1.0 mph 67 % 0.00 in
04:58 3.2 °F -4.9 °F 30.68 in Calm   1.0 mph 68 % 0.00 in
05:02 3.1 °F -5.0 °F 30.68 in Calm   1.0 mph 68 % 0.00 in
05:07 3.0 °F -5.1 °F 30.68 in Calm     68 % 0.00 in
05:12 2.8 °F -5.0 °F 30.68 in Calm     69 % 0.00 in
05:18 2.7 °F -5.1 °F 30.68 in Calm     69 % 0.00 in
05:23 2.7 °F -4.8 °F 30.68 in Calm     70 % 0.00 in
05:26 2.8 °F -4.4 °F 30.68 in Calm     71 % 0.00 in
05:31 2.9 °F -4.3 °F 30.68 in Calm     71 % 0.00 in
05:32 2.9 °F -4.3 °F 30.68 in Calm     71 % 0.00 in
05:37 2.9 °F -4.3 °F 30.68 in Calm     71 % 0.00 in
05:38 2.9 °F -4.3 °F 30.68 in Calm     71 % 0.00 in
05:43 2.7 °F -4.5 °F 30.68 in Calm     71 % 0.00 in
05:47 2.7 °F -4.5 °F 30.68 in Calm     71 % 0.00 in
05:52 2.5 °F -4.7 °F 30.68 in Calm     71 % 0.00 in
05:56 2.3 °F -4.9 °F 30.69 in Calm     71 % 0.00 in
06:01 2.0 °F -5.2 °F 30.68 in Calm     71 % 0.00 in
06:06 1.9 °F -5.3 °F 30.68 in Calm     71 % 0.00 in
06:07 1.8 °F -5.4 °F 30.69 in Calm     71 % 0.00 in
06:08 1.8 °F -5.4 °F 30.69 in Calm     71 % 0.00 in
06:13 1.7 °F -5.2 °F 30.69 in Calm     72 % 0.00 in
06:18 1.7 °F -4.9 °F 30.69 in Calm   1.0 mph 73 % 0.00 in
06:23 1.6 °F -5.0 °F 30.69 in Calm   1.0 mph 73 % 0.00 in
06:28 1.6 °F -5.0 °F 30.70 in Calm   1.0 mph 73 % 0.00 in
06:29 1.7 °F -4.9 °F 30.69 in Calm   1.0 mph 73 % 0.00 in
06:31 1.7 °F -4.9 °F 30.69 in Calm   1.0 mph 73 % 0.00 in
06:36 1.7 °F -4.9 °F 30.69 in Calm     73 % 0.00 in
06:37 1.7 °F -4.9 °F 30.69 in Calm     73 % 0.00 in
06:41 1.7 °F -4.9 °F 30.69 in Calm     73 % 0.00 in
06:42 1.7 °F -4.9 °F 30.69 in Calm     73 % 0.00 in
06:46 1.7 °F -4.9 °F 30.69 in Calm     73 % 0.00 in
06:48 1.7 °F -4.9 °F 30.69 in Calm     73 % 0.00 in
06:51 1.6 °F -5.0 °F 30.69 in Calm     73 % 0.00 in
06:56 1.7 °F -4.6 °F 30.69 in Calm     74 % 0.00 in
07:00 1.7 °F -4.7 °F 30.69 in Calm     74 % 0.00 in
07:05 1.6 °F -4.8 °F 30.70 in Calm     74 % 0.00 in
07:08 1.7 °F -4.6 °F 30.70 in Calm     74 % 0.00 in
07:09 1.7 °F -4.6 °F 30.70 in Calm     74 % 0.00 in
07:13 1.8 °F -4.5 °F 30.71 in Calm     74 % 0.00 in
07:15 1.9 °F -4.4 °F 30.71 in Calm     74 % 0.00 in
07:20 1.9 °F -4.4 °F 30.71 in WSW 1.0 mph 1.0 mph 74 % 0.00 in
07:25 1.8 °F -4.5 °F 30.71 in Calm   1.0 mph 74 % 0.00 in
07:26 1.8 °F -4.5 °F 30.71 in Calm   1.0 mph 74 % 0.00 in
07:28 1.8 °F -4.5 °F 30.71 in Calm   1.0 mph 74 % 0.00 in
07:33 1.7 °F -4.6 °F 30.71 in Calm   1.0 mph 74 % 0.00 in
07:34 1.7 °F -4.6 °F 30.71 in Calm   1.0 mph 74 % 0.00 in
07:39 1.6 °F -4.7 °F 30.71 in Calm     74 % 0.00 in
07:41 1.6 °F -4.7 °F 30.71 in Calm     74 % 0.00 in
07:50 1.6 °F -4.5 °F 30.71 in Calm     75 % 0.00 in
07:55 1.8 °F -4.3 °F 30.71 in Calm     75 % 0.00 in
08:00 1.9 °F -4.2 °F 30.72 in Calm     75 % 0.00 in
08:05 2.0 °F -4.1 °F 30.72 in Calm     75 % 0.00 in
08:07 2.1 °F -4.0 °F 30.72 in Calm     75 % 0.00 in
08:12 2.2 °F -3.9 °F 30.72 in Calm     75 % 0.00 in
08:16 2.4 °F -3.4 °F 30.72 in Calm     76 % 0.00 in
08:21 2.7 °F -3.1 °F 30.72 in Calm     76 % 0.00 in
08:26 3.4 °F -2.4 °F 30.72 in Calm   1.0 mph 76 % 0.00 in
08:27 3.6 °F -2.2 °F 30.72 in Calm   1.0 mph 76 % 0.00 in
08:32 4.2 °F -1.9 °F 30.72 in Calm   3.0 mph 75 % 0.00 in
08:35 4.4 °F -1.7 °F 30.72 in Calm   3.0 mph 75 % 0.00 in
08:42 5.0 °F -1.4 °F 30.73 in WSW 1.0 mph 3.0 mph 74 % 0.00 in
08:47 5.8 °F -1.0 °F 30.73 in Calm   3.0 mph 73 % 0.00 in
08:49 6.0 °F -1.0 °F 30.73 in Calm   2.0 mph 72 % 0.00 in
08:54 6.5 °F -0.6 °F 30.73 in Calm   2.0 mph 72 % 0.00 in
09:00 7.1 °F -0.3 °F 30.73 in Calm   2.0 mph 71 % 0.00 in
09:05 7.6 °F -0.1 °F 30.73 in Calm   2.0 mph 70 % 0.00 in
09:06 7.7 °F -0.3 °F 30.73 in Calm   2.0 mph 69 % 0.00 in
09:11 8.2 °F -0.1 °F 30.73 in Calm   4.0 mph 68 % 0.00 in
09:16 8.6 °F -0.1 °F 30.73 in Calm   4.0 mph 67 % 0.00 in
09:21 9.0 °F 0.3 °F 30.73 in WSW 4.0 mph 5.0 mph 67 % 0.00 in
09:26 9.7 °F 0.3 °F 30.74 in WSW 3.0 mph 6.0 mph 65 % 0.00 in
09:31 10.3 °F 0.2 °F 30.73 in WSW 2.0 mph 7.0 mph 63 % 0.00 in
09:36 10.6 °F 0.2 °F 30.73 in WSW 2.0 mph 7.0 mph 62 % 0.00 in
09:41 10.8 °F 0.0 °F 30.73 in Calm   7.0 mph 61 % 0.00 in
09:44 10.9 °F 0.1 °F 30.73 in Calm   7.0 mph 61 % 0.00 in
09:45 10.9 °F 0.1 °F 30.73 in WSW 2.0 mph 7.0 mph 61 % 0.00 in
09:50 11.3 °F 0.5 °F 30.73 in WSW 2.0 mph 5.0 mph 61 % 0.00 in
09:54 11.4 °F 0.2 °F 30.73 in WSW 2.0 mph 6.0 mph 60 % 0.00 in
09:59 11.7 °F 0.1 °F 30.74 in Calm   6.0 mph 59 % 0.00 in
10:04 11.9 °F 0.3 °F 30.74 in Calm   6.0 mph 59 % 0.00 in
10:08 12.1 °F 0.1 °F 30.73 in Calm   6.0 mph 58 % 0.00 in
10:13 12.2 °F 0.3 °F 30.73 in Calm   6.0 mph 58 % 0.00 in
10:16 12.2 °F -0.1 °F 30.73 in WSW 3.0 mph 6.0 mph 57 % 0.00 in
10:21 12.3 °F 0.0 °F 30.73 in Calm   6.0 mph 57 % 0.00 in
10:26 12.5 °F 0.2 °F 30.73 in WSW 2.0 mph 6.0 mph 57 % 0.00 in
10:31 12.7 °F -0.1 °F 30.74 in Calm   6.0 mph 56 % 0.00 in
10:32 12.7 °F -0.1 °F 30.74 in WSW 1.0 mph 6.0 mph 56 % 0.00 in
10:37 12.8 °F 0.1 °F 30.73 in Calm   5.0 mph 56 % 0.00 in
10:38 12.9 °F 0.1 °F 30.73 in Calm   5.0 mph 56 % 0.00 in
10:43 13.0 °F 0.6 °F 30.73 in Calm   5.0 mph 57 % 0.00 in
10:45 13.2 °F 0.4 °F 30.73 in Calm   5.0 mph 56 % 0.00 in
10:51 13.5 °F 0.7 °F 30.73 in WSW 3.0 mph 4.0 mph 56 % 0.00 in
10:56 13.7 °F 0.5 °F 30.73 in WSW 3.0 mph 4.0 mph 55 % 0.00 in
11:01 13.9 °F 0.7 °F 30.73 in Calm   5.0 mph 55 % 0.00 in
11:06 14.1 °F 0.9 °F 30.72 in WSW 2.0 mph 6.0 mph 55 % 0.00 in
11:11 14.3 °F 0.3 °F 30.72 in WSW 1.0 mph 8.0 mph 53 % 0.00 in
11:16 14.4 °F 0.8 °F 30.71 in SW 3.0 mph 8.0 mph 54 % 0.00 in
11:17 14.5 °F 0.5 °F 30.71 in SW 2.0 mph 8.0 mph 53 % 0.00 in
11:22 14.6 °F 0.1 °F 30.71 in SW 3.0 mph 8.0 mph 52 % 0.00 in
11:26 14.7 °F 0.2 °F 30.71 in Calm   8.0 mph 52 % 0.00 in
11:31 14.9 °F 0.8 °F 30.70 in WSW 4.0 mph 6.0 mph 53 % 0.00 in
11:36 15.2 °F 0.7 °F 30.70 in SW 1.0 mph 6.0 mph 52 % 0.00 in
11:41 15.4 °F 0.9 °F 30.69 in Calm   6.0 mph 52 % 0.00 in
11:46 15.7 °F 1.1 °F 30.69 in SW 2.0 mph 6.0 mph 52 % 0.00 in
11:48 15.8 °F 0.8 °F 30.69 in Calm   6.0 mph 51 % 0.00 in
11:53 16.2 °F 1.2 °F 30.69 in SW 4.0 mph 6.0 mph 51 % 0.00 in
11:55 16.2 °F 0.7 °F 30.68 in Calm   6.0 mph 50 % 0.00 in
11:56 16.2 °F 0.7 °F 30.68 in ESE 1.0 mph 6.0 mph 50 % 0.00 in
12:01 16.4 °F 1.4 °F 30.68 in South 2.0 mph 6.0 mph 51 % 0.00 in
12:02 16.4 °F 1.4 °F 30.67 in WSW 3.0 mph 6.0 mph 51 % 0.00 in
12:07 16.6 °F 1.1 °F 30.67 in WSW 3.0 mph 5.0 mph 50 % 0.00 in
12:12 16.8 °F 0.9 °F 30.67 in Calm   6.0 mph 49 % 0.00 in
12:13 16.8 °F 0.9 °F 30.67 in Calm   6.0 mph 49 % 0.00 in
12:18 17.0 °F 1.0 °F 30.67 in WSW 1.0 mph 6.0 mph 49 % 0.00 in
12:22 17.1 °F 1.1 °F 30.67 in WSW 1.0 mph 6.0 mph 49 % 0.00 in
12:28 17.4 °F 1.9 °F 30.67 in Calm   6.0 mph 50 % 0.00 in
12:31 17.6 °F 1.6 °F 30.67 in SW 5.0 mph 7.0 mph 49 % 0.00 in
12:36 17.9 °F 1.4 °F 30.66 in WSW 4.0 mph 7.0 mph 48 % 0.00 in
12:37 17.9 °F 1.9 °F 30.66 in WSW 1.0 mph 7.0 mph 49 % 0.00 in
12:41 18.1 °F 1.6 °F 30.66 in SW 2.0 mph 7.0 mph 48 % 0.00 in
12:46 18.2 °F 1.2 °F 30.65 in Calm   7.0 mph 47 % 0.00 in
12:51 18.3 °F 1.3 °F 30.65 in Calm   7.0 mph 47 % 0.00 in
12:56 18.5 °F 2.0 °F 30.64 in Calm   7.0 mph 48 % 0.00 in
12:59 18.6 °F 2.1 °F 30.64 in Calm   7.0 mph 48 % 0.00 in
13:04 18.9 °F 1.9 °F 30.64 in Calm   7.0 mph 47 % 0.00 in
13:06 18.9 °F 1.9 °F 30.63 in Calm   7.0 mph 47 % 0.00 in
13:10 19.0 °F 1.5 °F 30.63 in Calm   7.0 mph 46 % 0.00 in
13:13 18.9 °F 0.9 °F 30.62 in SE 1.0 mph 7.0 mph 45 % 0.00 in
13:19 19.1 °F 1.6 °F 30.62 in Calm   3.0 mph 46 % 0.00 in
13:24 19.3 °F 1.8 °F 30.62 in Calm   5.0 mph 46 % 0.00 in
13:30 19.4 °F 2.3 °F 30.61 in East 1.0 mph 5.0 mph 47 % 0.00 in
13:35 19.6 °F 2.5 °F 30.61 in Calm   5.0 mph 47 % 0.00 in
13:40 19.8 °F 2.2 °F 30.61 in East 1.0 mph 5.0 mph 46 % 0.00 in
13:45 19.8 °F 1.7 °F 30.60 in SW 3.0 mph 8.0 mph 45 % 0.00 in
13:48 19.8 °F 1.2 °F 30.60 in Calm   8.0 mph 44 % 0.00 in
13:53 19.9 °F 2.3 °F 30.60 in Calm   8.0 mph 46 % 0.00 in
13:54 20.0 °F 1.9 °F 30.60 in Calm   8.0 mph 45 % 0.00 in
13:59 20.2 °F 2.1 °F 30.61 in Calm   8.0 mph 45 % 0.00 in
14:00 20.2 °F 1.6 °F 30.61 in Calm   8.0 mph 44 % 0.00 in
14:05 20.3 °F 2.2 °F 30.60 in Calm   4.0 mph 45 % 0.00 in
14:10 20.3 °F 1.7 °F 30.60 in SSW 1.0 mph 3.0 mph 44 % 0.00 in
14:13 20.4 °F 1.8 °F 30.60 in SSW 1.0 mph 4.0 mph 44 % 0.00 in
14:18 20.5 °F 1.4 °F 30.60 in SW 3.0 mph 5.0 mph 43 % 0.00 in
14:21 20.6 °F 1.5 °F 30.60 in Calm   5.0 mph 43 % 0.00 in
14:26 20.7 °F 1.7 °F 30.60 in Calm   5.0 mph 43 % 0.00 in
14:31 20.9 °F 2.2 °F 30.60 in Calm   5.0 mph 44 % 0.00 in
14:36 21.0 °F 1.8 °F 30.59 in Calm   5.0 mph 43 % 0.00 in
14:39 21.0 °F 1.8 °F 30.59 in Calm   5.0 mph 43 % 0.00 in
14:44 21.1 °F 1.4 °F 30.59 in Calm   4.0 mph 42 % 0.00 in
14:49 21.2 °F 2.6 °F 30.58 in Calm   4.0 mph 44 % 0.00 in
14:54 21.3 °F 2.2 °F 30.58 in Calm   4.0 mph 43 % 0.00 in
14:58 21.3 °F 2.1 °F 30.58 in WSW 1.0 mph 4.0 mph 43 % 0.00 in
15:03 21.4 °F 2.2 °F 30.58 in Calm   4.0 mph 43 % 0.00 in
15:04 21.4 °F 2.2 °F 30.58 in Calm   4.0 mph 43 % 0.00 in
15:09 21.6 °F 2.4 °F 30.58 in Calm   5.0 mph 43 % 0.00 in
15:14 21.7 °F 2.5 °F 30.58 in Calm   5.0 mph 43 % 0.00 in
15:17 21.7 °F 1.9 °F 30.58 in South 5.0 mph 7.0 mph 42 % 0.00 in
15:22 21.7 °F 1.9 °F 30.58 in Calm   7.0 mph 42 % 0.00 in
15:27 21.8 °F 2.0 °F 30.58 in Calm   7.0 mph 42 % 0.00 in
15:28 21.8 °F 2.2 °F 30.58 in SW 1.0 mph 7.0 mph 42 % 0.00 in
15:33 21.9 °F 2.3 °F 30.58 in Calm   7.0 mph 42 % 0.00 in
15:38 22.0 °F 2.4 °F 30.58 in Calm   6.0 mph 42 % 0.00 in
15:39 22.0 °F 2.4 °F 30.58 in Calm   6.0 mph 42 % 0.00 in
15:44 22.1 °F 3.0 °F 30.58 in Calm   6.0 mph 43 % 0.00 in
15:50 22.0 °F 2.4 °F 30.58 in Calm   5.0 mph 42 % 0.00 in
15:55 21.8 °F 2.0 °F 30.59 in SSW 1.0 mph 5.0 mph 42 % 0.00 in
16:00 21.7 °F 2.5 °F 30.58 in Calm   4.0 mph 43 % 0.00 in
16:04 21.6 °F 2.4 °F 30.58 in Calm   3.0 mph 43 % 0.00 in
16:10 21.5 °F 2.3 °F 30.58 in Calm   2.0 mph 43 % 0.00 in
16:12 21.5 °F 2.3 °F 30.58 in Calm   2.0 mph 43 % 0.00 in
16:17 21.5 °F 2.3 °F 30.58 in Calm   4.0 mph 43 % 0.00 in
16:22 21.5 °F 2.8 °F 30.58 in Calm   4.0 mph 44 % 0.00 in
16:28 21.4 °F 2.7 °F 30.58 in Calm   4.0 mph 44 % 0.00 in
16:33 21.4 °F 2.7 °F 30.57 in Calm   4.0 mph 44 % 0.00 in
16:35 21.4 °F 2.7 °F 30.57 in Calm   3.0 mph 44 % 0.00 in
16:40 21.3 °F 2.6 °F 30.57 in SSE 1.0 mph 5.0 mph 44 % 0.00 in
16:42 21.3 °F 2.1 °F 30.57 in Calm   5.0 mph 43 % 0.00 in
16:47 21.2 °F 2.2 °F 30.57 in Calm   5.0 mph 43 % 0.00 in
16:52 21.1 °F 2.6 °F 30.57 in Calm   5.0 mph 44 % 0.00 in
16:59 20.8 °F 4.6 °F 30.56 in ESE 1.0 mph 5.0 mph 49 % 0.00 in
17:01 20.6 °F 5.3 °F 30.56 in Calm   5.0 mph 51 % 0.00 in
17:02 20.5 °F 5.2 °F 30.56 in Calm   5.0 mph 51 % 0.00 in
17:07 20.1 °F 5.7 °F 30.56 in Calm   5.0 mph 53 % 0.00 in
17:09 20.0 °F 6.0 °F 30.56 in Calm   4.0 mph 54 % 0.00 in
17:12 19.8 °F 6.2 °F 30.56 in Calm   4.0 mph 55 % 0.00 in
17:17 19.5 °F 6.3 °F 30.56 in Calm   3.0 mph 56 % 0.00 in
17:18 19.5 °F 6.7 °F 30.56 in Calm   3.0 mph 57 % 0.00 in
17:23 19.3 °F 6.5 °F 30.56 in Calm   3.0 mph 57 % 0.00 in
17:24 19.3 °F 6.5 °F 30.56 in Calm   3.0 mph 57 % 0.00 in
17:30 19.2 °F 6.9 °F 30.56 in Calm   3.0 mph 58 % 0.00 in
17:34 19.1 °F 6.8 °F 30.56 in Calm   3.0 mph 58 % 0.00 in
17:37 19.0 °F 7.0 °F 30.56 in ESE 1.0 mph 3.0 mph 59 % 0.00 in
17:43 18.9 °F 7.0 °F 30.56 in Calm   3.0 mph 59 % 0.00 in
17:48 18.8 °F 6.9 °F 30.57 in Calm   3.0 mph 59 % 0.00 in
17:52 18.7 °F 6.8 °F 30.56 in Calm   3.0 mph 59 % 0.00 in
17:57 18.7 °F 6.8 °F 30.56 in Calm   3.0 mph 59 % 0.00 in
18:01 18.6 °F 6.7 °F 30.56 in Calm   1.0 mph 59 % 0.00 in
18:06 18.5 °F 6.6 °F 30.55 in Calm   3.0 mph 59 % 0.00 in
18:11 18.4 °F 6.5 °F 30.55 in Calm   3.0 mph 59 % 0.00 in
18:16 18.3 °F 6.4 °F 30.55 in Calm   3.0 mph 59 % 0.00 in
18:18 18.3 °F 6.4 °F 30.56 in Calm   3.0 mph 59 % 0.00 in
18:23 18.2 °F 6.3 °F 30.56 in Calm   3.0 mph 59 % 0.00 in
18:24 18.2 °F 6.3 °F 30.56 in Calm   2.0 mph 59 % 0.00 in
18:30 18.0 °F 6.1 °F 30.55 in Calm   1.0 mph 59 % 0.00 in
18:35 17.9 °F 6.0 °F 30.55 in Calm     59 % 0.00 in
18:40 17.7 °F 5.8 °F 30.55 in Calm     59 % 0.00 in
18:41 17.6 °F 5.7 °F 30.55 in Calm     59 % 0.00 in
18:46 17.5 °F 5.6 °F 30.55 in Calm     59 % 0.00 in
18:51 17.2 °F 5.7 °F 30.56 in Calm     60 % 0.00 in
18:52 17.2 °F 5.7 °F 30.56 in Calm     60 % 0.00 in
18:53 17.1 °F 5.6 °F 30.56 in Calm     60 % 0.00 in
18:58 16.9 °F 5.4 °F 30.55 in Calm     60 % 0.00 in
19:03 16.8 °F 5.3 °F 30.55 in Calm   1.0 mph 60 % 0.00 in
19:05 16.8 °F 5.3 °F 30.55 in Calm   1.0 mph 60 % 0.00 in
19:10 16.7 °F 5.2 °F 30.55 in Calm   1.0 mph 60 % 0.00 in
19:15 16.5 °F 5.1 °F 30.55 in Calm   1.0 mph 60 % 0.00 in
19:17 16.5 °F 5.1 °F 30.55 in Calm   1.0 mph 60 % 0.00 in
19:20 16.4 °F 5.0 °F 30.55 in Calm     60 % 0.00 in
19:25 16.3 °F 5.2 °F 30.54 in Calm   1.0 mph 61 % 0.00 in
19:28 16.3 °F 5.2 °F 30.54 in Calm   1.0 mph 61 % 0.00 in
19:33 16.3 °F 5.2 °F 30.54 in Calm   1.0 mph 61 % 0.00 in
19:38 16.4 °F 5.0 °F 30.54 in Calm   1.0 mph 60 % 0.00 in
19:43 16.4 °F 5.0 °F 30.54 in Calm   1.0 mph 60 % 0.00 in
19:48 16.4 °F 4.6 °F 30.54 in Calm   1.0 mph 59 % 0.00 in
19:53 16.4 °F 4.6 °F 30.54 in Calm   1.0 mph 59 % 0.00 in
19:58 16.5 °F 4.3 °F 30.54 in Calm   2.0 mph 58 % 0.00 in
20:03 16.5 °F 4.3 °F 30.54 in Calm   2.0 mph 58 % 0.00 in
20:08 16.5 °F 3.9 °F 30.53 in Calm   2.0 mph 57 % 0.00 in
20:13 16.5 °F 3.9 °F 30.53 in Calm   2.0 mph 57 % 0.00 in
20:18 16.5 °F 3.9 °F 30.53 in Calm   3.0 mph 57 % 0.00 in
20:23 16.5 °F 3.9 °F 30.53 in Calm   3.0 mph 57 % 0.00 in
20:28 16.6 °F 4.0 °F 30.53 in Calm   3.0 mph 57 % 0.00 in
20:29 16.6 °F 4.0 °F 30.53 in Calm   3.0 mph 57 % 0.00 in
20:34 16.6 °F 3.6 °F 30.53 in Calm   3.0 mph 56 % 0.00 in
20:36 16.5 °F 3.5 °F 30.52 in Calm   3.0 mph 56 % 0.00 in
20:41 16.4 °F 3.8 °F 30.52 in Calm   2.0 mph 57 % 0.00 in
20:43 16.4 °F 3.8 °F 30.52 in Calm   2.0 mph 57 % 0.00 in
20:48 16.3 °F 3.7 °F 30.52 in Calm   3.0 mph 57 % 0.00 in
20:49 16.2 °F 3.6 °F 30.52 in Calm   3.0 mph 57 % 0.00 in
20:52 16.2 °F 3.6 °F 30.51 in Calm   3.0 mph 57 % 0.00 in
20:57 16.2 °F 3.6 °F 30.51 in Calm   3.0 mph 57 % 0.00 in
21:03 16.1 °F 3.5 °F 30.51 in Calm   3.0 mph 57 % 0.00 in
21:04 16.1 °F 3.5 °F 30.51 in Calm   3.0 mph 57 % 0.00 in
21:09 16.0 °F 3.4 °F 30.51 in Calm   1.0 mph 57 % 0.00 in
21:12 15.9 °F 3.4 °F 30.51 in Calm   1.0 mph 57 % 0.00 in
21:17 15.9 °F 3.4 °F 30.50 in Calm   1.0 mph 57 % 0.00 in
21:22 15.9 °F 3.7 °F 30.51 in Calm   1.0 mph 58 % 0.00 in
21:27 15.9 °F 3.7 °F 30.51 in Calm   1.0 mph 58 % 0.00 in
21:32 15.9 °F 3.7 °F 30.51 in Calm   1.0 mph 58 % 0.00 in
21:38 15.8 °F 3.6 °F 30.51 in Calm   1.0 mph 58 % 0.00 in
21:41 15.8 °F 3.6 °F 30.51 in Calm   1.0 mph 58 % 0.00 in
21:46 15.7 °F 3.6 °F 30.51 in Calm   1.0 mph 58 % 0.00 in
21:48 15.7 °F 3.6 °F 30.50 in Calm   1.0 mph 58 % 0.00 in
21:53 15.6 °F 3.5 °F 30.50 in Calm   1.0 mph 58 % 0.00 in
21:54 15.6 °F 3.5 °F 30.50 in Calm   1.0 mph 58 % 0.00 in
22:09 15.2 °F 3.5 °F 30.49 in Calm   1.0 mph 59 % 0.00 in
22:16 15.1 °F 3.7 °F 30.49 in Calm   1.0 mph 60 % 0.00 in
22:28 15.4 °F 4.4 °F 30.49 in Calm   1.0 mph 61 % 0.00 in
22:36 15.7 °F 4.7 °F 30.48 in Calm   1.0 mph 61 % 0.00 in
23:42 17.1 °F 4.8 °F 30.46 in Calm   4.0 mph 58 % 0.00 in
MarylandWx.com
Compliments of Weather Underground - 6.75 mb